Ruso, North Dakota
Current Conditions -  °F | °C
As of 6:54 AM on Saturday 25 Oct 2014 (Local Time) from KMOT Reporting Station
Clear Clear  
Wind Chill: 33°   Ceiling: Unl
Heat Index: 40°   Visibility: 10mi
Dew Point: 30°   Wind: 10mph
Humidity: 68%   Direction: 260°W
Pressure: 30.1"   Gusts: NA
Location:  47.84°N, 100.93°W
Report Text: KMOT 251154Z AUTO 26009KT 10SM CLR 04/M01 A3010 RMK AO2 SLP201 T00441011 10072 20028 53014
Loading
Personal Weather Stations






























Interactive Weather Map New forecast layout! Learn more

10-Day Weather Forecast

Advertisements
Track Severe Weather on mobile